sensor_id;sensor_type;location;lat;lon;timestamp;P1;durP1;ratioP1;P2;durP2;ratioP2
19735;SDS011;32064;49.310;8.646;2023-04-30T00:00:44;2.33;;;2.13;;
19735;SDS011;32064;49.310;8.646;2023-04-30T00:03:10;3.57;;;2.50;;
19735;SDS011;32064;49.310;8.646;2023-04-30T00:05:35;3.07;;;2.30;;
19735;SDS011;32064;49.310;8.646;2023-04-30T00:08:02;3.60;;;2.60;;
19735;SDS011;32064;49.310;8.646;2023-04-30T00:10:29;3.33;;;2.33;;
19735;SDS011;32064;49.310;8.646;2023-04-30T00:12:54;4.00;;;2.03;;
19735;SDS011;32064;49.310;8.646;2023-04-30T00:15:21;2.53;;;1.90;;
19735;SDS011;32064;49.310;8.646;2023-04-30T00:17:46;2.43;;;2.13;;
19735;SDS011;32064;49.310;8.646;2023-04-30T00:20:12;2.60;;;2.10;;
19735;SDS011;32064;49.310;8.646;2023-04-30T00:22:37;2.43;;;2.17;;
19735;SDS011;32064;49.310;8.646;2023-04-30T00:25:03;2.47;;;2.27;;
19735;SDS011;32064;49.310;8.646;2023-04-30T00:27:28;2.87;;;2.13;;
19735;SDS011;32064;49.310;8.646;2023-04-30T00:29:55;2.00;;;1.80;;
19735;SDS011;32064;49.310;8.646;2023-04-30T00:32:21;3.07;;;2.40;;
19735;SDS011;32064;49.310;8.646;2023-04-30T00:34:48;2.53;;;2.23;;
19735;SDS011;32064;49.310;8.646;2023-04-30T00:37:13;2.40;;;2.00;;
19735;SDS011;32064;49.310;8.646;2023-04-30T00:39:39;3.03;;;2.73;;
19735;SDS011;32064;49.310;8.646;2023-04-30T00:42:04;5.13;;;2.77;;
19735;SDS011;32064;49.310;8.646;2023-04-30T00:44:30;3.33;;;2.80;;
19735;SDS011;32064;49.310;8.646;2023-04-30T00:46:55;3.13;;;2.43;;
19735;SDS011;32064;49.310;8.646;2023-04-30T00:49:21;3.60;;;3.20;;
19735;SDS011;32064;49.310;8.646;2023-04-30T00:51:46;2.90;;;2.60;;
19735;SDS011;32064;49.310;8.646;2023-04-30T00:54:12;3.37;;;2.83;;
19735;SDS011;32064;49.310;8.646;2023-04-30T00:56:38;3.20;;;2.40;;
19735;SDS011;32064;49.310;8.646;2023-04-30T00:59:04;3.40;;;2.93;;
19735;SDS011;32064;49.310;8.646;2023-04-30T01:01:29;3.70;;;3.07;;
19735;SDS011;32064;49.310;8.646;2023-04-30T01:03:56;4.27;;;3.13;;
19735;SDS011;32064;49.310;8.646;2023-04-30T01:06:21;5.03;;;3.63;;
19735;SDS011;32064;49.310;8.646;2023-04-30T01:08:48;4.73;;;3.50;;
19735;SDS011;32064;49.310;8.646;2023-04-30T01:14:16;4.50;;;3.27;;
19735;SDS011;32064;49.310;8.646;2023-04-30T01:19:45;2.97;;;2.67;;
19735;SDS011;32064;49.310;8.646;2023-04-30T01:30:32;4.60;;;2.70;;
19735;SDS011;32064;49.310;8.646;2023-04-30T01:32:59;2.97;;;2.53;;
19735;SDS011;32064;49.310;8.646;2023-04-30T01:40:47;3.33;;;2.40;;
19735;SDS011;32064;49.310;8.646;2023-04-30T01:43:22;2.57;;;2.37;;
19735;SDS011;32064;49.310;8.646;2023-04-30T01:54:02;4.20;;;2.83;;
19735;SDS011;32064;49.310;8.646;2023-04-30T01:56:38;3.80;;;2.30;;
19735;SDS011;32064;49.310;8.646;2023-04-30T01:59:08;2.87;;;2.50;;
19735;SDS011;32064;49.310;8.646;2023-04-30T02:01:34;4.00;;;2.80;;
19735;SDS011;32064;49.310;8.646;2023-04-30T02:03:59;3.17;;;2.70;;
19735;SDS011;32064;49.310;8.646;2023-04-30T02:06:25;3.53;;;2.70;;
19735;SDS011;32064;49.310;8.646;2023-04-30T02:08:55;3.00;;;2.63;;
19735;SDS011;32064;49.310;8.646;2023-04-30T02:11:26;4.47;;;2.73;;
19735;SDS011;32064;49.310;8.646;2023-04-30T02:13:52;3.03;;;2.60;;
19735;SDS011;32064;49.310;8.646;2023-04-30T02:16:17;2.97;;;2.47;;
19735;SDS011;32064;49.310;8.646;2023-04-30T02:18:43;2.97;;;2.67;;
19735;SDS011;32064;49.310;8.646;2023-04-30T02:21:09;4.73;;;3.30;;
19735;SDS011;32064;49.310;8.646;2023-04-30T02:23:35;4.77;;;2.80;;
19735;SDS011;32064;49.310;8.646;2023-04-30T02:26:00;4.33;;;2.83;;
19735;SDS011;32064;49.310;8.646;2023-04-30T02:28:27;3.50;;;2.87;;
19735;SDS011;32064;49.310;8.646;2023-04-30T02:30:52;3.60;;;2.50;;
19735;SDS011;32064;49.310;8.646;2023-04-30T02:33:17;4.10;;;3.17;;
19735;SDS011;32064;49.310;8.646;2023-04-30T02:35:43;3.03;;;2.77;;
19735;SDS011;32064;49.310;8.646;2023-04-30T02:38:08;6.03;;;2.83;;
19735;SDS011;32064;49.310;8.646;2023-04-30T02:40:34;3.70;;;2.73;;
19735;SDS011;32064;49.310;8.646;2023-04-30T02:42:59;2.53;;;2.33;;
19735;SDS011;32064;49.310;8.646;2023-04-30T02:45:25;3.00;;;2.33;;
19735;SDS011;32064;49.310;8.646;2023-04-30T02:47:51;4.03;;;2.63;;
19735;SDS011;32064;49.310;8.646;2023-04-30T02:50:16;2.60;;;2.40;;
19735;SDS011;32064;49.310;8.646;2023-04-30T02:52:43;2.50;;;2.30;;
19735;SDS011;32064;49.310;8.646;2023-04-30T02:55:10;2.50;;;2.30;;
19735;SDS011;32064;49.310;8.646;2023-04-30T02:57:35;2.60;;;2.20;;
19735;SDS011;32064;49.310;8.646;2023-04-30T03:00:01;3.23;;;2.63;;
19735;SDS011;32064;49.310;8.646;2023-04-30T03:02:26;3.13;;;2.70;;
19735;SDS011;32064;49.310;8.646;2023-04-30T03:04:52;3.27;;;2.40;;
19735;SDS011;32064;49.310;8.646;2023-04-30T03:07:17;2.50;;;2.30;;
19735;SDS011;32064;49.310;8.646;2023-04-30T03:09:42;3.17;;;2.60;;
19735;SDS011;32064;49.310;8.646;2023-04-30T03:12:08;2.17;;;1.90;;
19735;SDS011;32064;49.310;8.646;2023-04-30T03:14:33;3.50;;;2.40;;
19735;SDS011;32064;49.310;8.646;2023-04-30T03:16:58;3.27;;;2.63;;
19735;SDS011;32064;49.310;8.646;2023-04-30T03:19:24;2.93;;;2.23;;
19735;SDS011;32064;49.310;8.646;2023-04-30T03:21:53;2.80;;;2.50;;
19735;SDS011;32064;49.310;8.646;2023-04-30T03:24:19;3.90;;;2.50;;
19735;SDS011;32064;49.310;8.646;2023-04-30T03:26:45;3.47;;;2.40;;
19735;SDS011;32064;49.310;8.646;2023-04-30T03:29:10;3.17;;;2.60;;
19735;SDS011;32064;49.310;8.646;2023-04-30T03:31:36;4.17;;;2.70;;
19735;SDS011;32064;49.310;8.646;2023-04-30T03:34:01;4.67;;;2.43;;
19735;SDS011;32064;49.310;8.646;2023-04-30T03:36:26;3.37;;;2.93;;
19735;SDS011;32064;49.310;8.646;2023-04-30T03:38:52;4.10;;;2.70;;
19735;SDS011;32064;49.310;8.646;2023-04-30T03:41:17;3.83;;;2.90;;
19735;SDS011;32064;49.310;8.646;2023-04-30T03:43:43;3.03;;;2.47;;
19735;SDS011;32064;49.310;8.646;2023-04-30T03:46:08;3.37;;;2.70;;
19735;SDS011;32064;49.310;8.646;2023-04-30T03:48:34;3.90;;;2.83;;
19735;SDS011;32064;49.310;8.646;2023-04-30T03:50:59;3.03;;;2.73;;
19735;SDS011;32064;49.310;8.646;2023-04-30T03:53:25;2.97;;;2.53;;
19735;SDS011;32064;49.310;8.646;2023-04-30T03:55:50;3.67;;;2.73;;
19735;SDS011;32064;49.310;8.646;2023-04-30T03:58:17;3.33;;;2.87;;
19735;SDS011;32064;49.310;8.646;2023-04-30T04:00:42;2.77;;;2.53;;
19735;SDS011;32064;49.310;8.646;2023-04-30T04:03:10;3.50;;;2.60;;
19735;SDS011;32064;49.310;8.646;2023-04-30T04:05:36;3.30;;;2.43;;
19735;SDS011;32064;49.310;8.646;2023-04-30T04:08:01;4.20;;;2.67;;
19735;SDS011;32064;49.310;8.646;2023-04-30T04:10:26;4.77;;;3.13;;
19735;SDS011;32064;49.310;8.646;2023-04-30T04:12:52;3.30;;;3.00;;
19735;SDS011;32064;49.310;8.646;2023-04-30T04:15:17;3.07;;;2.77;;
19735;SDS011;32064;49.310;8.646;2023-04-30T04:17:43;4.40;;;2.97;;
19735;SDS011;32064;49.310;8.646;2023-04-30T04:20:08;5.30;;;3.13;;
19735;SDS011;32064;49.310;8.646;2023-04-30T04:22:34;3.63;;;3.07;;
19735;SDS011;32064;49.310;8.646;2023-04-30T04:24:59;3.67;;;3.20;;
19735;SDS011;32064;49.310;8.646;2023-04-30T04:27:25;3.33;;;3.03;;
19735;SDS011;32064;49.310;8.646;2023-04-30T04:29:51;3.37;;;2.90;;
19735;SDS011;32064;49.310;8.646;2023-04-30T04:32:17;3.20;;;2.90;;
19735;SDS011;32064;49.310;8.646;2023-04-30T04:34:42;2.97;;;2.70;;
19735;SDS011;32064;49.310;8.646;2023-04-30T04:37:08;4.83;;;2.90;;
19735;SDS011;32064;49.310;8.646;2023-04-30T04:39:34;3.83;;;3.00;;
19735;SDS011;32064;49.310;8.646;2023-04-30T04:42:00;4.47;;;3.40;;
19735;SDS011;32064;49.310;8.646;2023-04-30T04:44:26;3.40;;;2.80;;
19735;SDS011;32064;49.310;8.646;2023-04-30T04:46:52;3.43;;;3.13;;
19735;SDS011;32064;49.310;8.646;2023-04-30T04:49:18;4.13;;;3.00;;
19735;SDS011;32064;49.310;8.646;2023-04-30T04:51:43;4.00;;;2.83;;
19735;SDS011;32064;49.310;8.646;2023-04-30T04:54:09;2.93;;;2.63;;
19735;SDS011;32064;49.310;8.646;2023-04-30T04:56:34;4.70;;;2.90;;
19735;SDS011;32064;49.310;8.646;2023-04-30T04:59:00;4.33;;;3.20;;
19735;SDS011;32064;49.310;8.646;2023-04-30T05:01:25;3.07;;;2.73;;
19735;SDS011;32064;49.310;8.646;2023-04-30T05:03:51;4.63;;;2.97;;
19735;SDS011;32064;49.310;8.646;2023-04-30T05:06:17;3.27;;;2.90;;
19735;SDS011;32064;49.310;8.646;2023-04-30T05:08:43;4.17;;;2.73;;
19735;SDS011;32064;49.310;8.646;2023-04-30T05:11:08;3.33;;;2.73;;
19735;SDS011;32064;49.310;8.646;2023-04-30T05:13:34;3.47;;;3.03;;
19735;SDS011;32064;49.310;8.646;2023-04-30T05:15:59;3.47;;;3.13;;
19735;SDS011;32064;49.310;8.646;2023-04-30T05:18:25;3.97;;;3.00;;
19735;SDS011;32064;49.310;8.646;2023-04-30T05:20:50;3.77;;;3.00;;
19735;SDS011;32064;49.310;8.646;2023-04-30T05:23:16;3.67;;;2.77;;
19735;SDS011;32064;49.310;8.646;2023-04-30T05:25:41;3.60;;;3.07;;
19735;SDS011;32064;49.310;8.646;2023-04-30T05:28:07;4.33;;;3.03;;
19735;SDS011;32064;49.310;8.646;2023-04-30T05:30:32;3.73;;;2.77;;
19735;SDS011;32064;49.310;8.646;2023-04-30T05:32:58;3.13;;;2.83;;
19735;SDS011;32064;49.310;8.646;2023-04-30T05:35:27;4.20;;;3.07;;
19735;SDS011;32064;49.310;8.646;2023-04-30T05:37:54;4.00;;;3.10;;
19735;SDS011;32064;49.310;8.646;2023-04-30T05:40:19;3.27;;;2.97;;
19735;SDS011;32064;49.310;8.646;2023-04-30T05:42:45;3.67;;;2.80;;
19735;SDS011;32064;49.310;8.646;2023-04-30T05:45:11;5.13;;;3.23;;
19735;SDS011;32064;49.310;8.646;2023-04-30T05:47:38;3.50;;;2.77;;
19735;SDS011;32064;49.310;8.646;2023-04-30T05:50:04;4.50;;;3.28;;
19735;SDS011;32064;49.310;8.646;2023-04-30T05:52:31;3.10;;;2.80;;
19735;SDS011;32064;49.310;8.646;2023-04-30T05:54:56;3.77;;;3.47;;
19735;SDS011;32064;49.310;8.646;2023-04-30T05:57:22;3.30;;;2.90;;
19735;SDS011;32064;49.310;8.646;2023-04-30T05:59:47;3.00;;;2.70;;
19735;SDS011;32064;49.310;8.646;2023-04-30T06:02:13;3.73;;;3.40;;
19735;SDS011;32064;49.310;8.646;2023-04-30T06:04:39;5.80;;;3.13;;
19735;SDS011;32064;49.310;8.646;2023-04-30T06:07:05;3.50;;;3.20;;
19735;SDS011;32064;49.310;8.646;2023-04-30T06:09:30;4.30;;;3.10;;
19735;SDS011;32064;49.310;8.646;2023-04-30T06:11:56;3.30;;;2.83;;
19735;SDS011;32064;49.310;8.646;2023-04-30T06:14:21;3.95;;;3.03;;
19735;SDS011;32064;49.310;8.646;2023-04-30T06:16:47;4.37;;;3.07;;
19735;SDS011;32064;49.310;8.646;2023-04-30T06:19:13;4.83;;;3.03;;
19735;SDS011;32064;49.310;8.646;2023-04-30T06:21:39;3.50;;;2.80;;
19735;SDS011;32064;49.310;8.646;2023-04-30T06:24:04;3.65;;;3.15;;
19735;SDS011;32064;49.310;8.646;2023-04-30T06:26:31;4.90;;;3.20;;
19735;SDS011;32064;49.310;8.646;2023-04-30T06:28:56;4.53;;;3.17;;
19735;SDS011;32064;49.310;8.646;2023-04-30T06:31:22;4.55;;;3.20;;
19735;SDS011;32064;49.310;8.646;2023-04-30T06:33:47;4.60;;;2.90;;
19735;SDS011;32064;49.310;8.646;2023-04-30T06:36:14;3.42;;;3.00;;
19735;SDS011;32064;49.310;8.646;2023-04-30T06:38:39;3.20;;;2.70;;
19735;SDS011;32064;49.310;8.646;2023-04-30T06:41:05;3.25;;;2.88;;
19735;SDS011;32064;49.310;8.646;2023-04-30T06:43:31;4.88;;;3.13;;
19735;SDS011;32064;49.310;8.646;2023-04-30T06:45:56;4.60;;;3.15;;
19735;SDS011;32064;49.310;8.646;2023-04-30T06:48:21;8.43;;;3.28;;
19735;SDS011;32064;49.310;8.646;2023-04-30T06:50:47;3.72;;;3.13;;
19735;SDS011;32064;49.310;8.646;2023-04-30T06:53:13;4.90;;;3.22;;
19735;SDS011;32064;49.310;8.646;2023-04-30T06:55:43;4.15;;;3.10;;
19735;SDS011;32064;49.310;8.646;2023-04-30T06:58:09;3.67;;;3.10;;
19735;SDS011;32064;49.310;8.646;2023-04-30T07:00:34;4.15;;;3.50;;
19735;SDS011;32064;49.310;8.646;2023-04-30T07:03:00;3.95;;;3.25;;
19735;SDS011;32064;49.310;8.646;2023-04-30T07:05:27;7.20;;;3.88;;
19735;SDS011;32064;49.310;8.646;2023-04-30T07:07:53;3.88;;;3.38;;
19735;SDS011;32064;49.310;8.646;2023-04-30T07:10:19;4.10;;;3.67;;
19735;SDS011;32064;49.310;8.646;2023-04-30T07:12:44;4.20;;;3.80;;
19735;SDS011;32064;49.310;8.646;2023-04-30T07:15:10;5.72;;;3.72;;
19735;SDS011;32064;49.310;8.646;2023-04-30T07:17:36;6.40;;;3.78;;
19735;SDS011;32064;49.310;8.646;2023-04-30T07:20:02;5.78;;;4.05;;
19735;SDS011;32064;49.310;8.646;2023-04-30T07:22:31;4.40;;;4.00;;
19735;SDS011;32064;49.310;8.646;2023-04-30T07:24:57;4.28;;;3.88;;
19735;SDS011;32064;49.310;8.646;2023-04-30T07:27:22;5.47;;;3.90;;
19735;SDS011;32064;49.310;8.646;2023-04-30T07:29:47;3.75;;;3.38;;
19735;SDS011;32064;49.310;8.646;2023-04-30T07:32:13;3.97;;;3.60;;
19735;SDS011;32064;49.310;8.646;2023-04-30T07:34:39;4.82;;;4.20;;
19735;SDS011;32064;49.310;8.646;2023-04-30T07:37:05;4.32;;;3.50;;
19735;SDS011;32064;49.310;8.646;2023-04-30T07:39:30;5.25;;;3.92;;
19735;SDS011;32064;49.310;8.646;2023-04-30T07:41:56;3.95;;;3.50;;
19735;SDS011;32064;49.310;8.646;2023-04-30T07:44:21;5.55;;;3.88;;
19735;SDS011;32064;49.310;8.646;2023-04-30T07:46:47;7.68;;;3.60;;
19735;SDS011;32064;49.310;8.646;2023-04-30T07:49:12;4.45;;;3.70;;
19735;SDS011;32064;49.310;8.646;2023-04-30T07:51:37;4.13;;;3.67;;
19735;SDS011;32064;49.310;8.646;2023-04-30T07:54:03;4.20;;;3.80;;
19735;SDS011;32064;49.310;8.646;2023-04-30T07:56:29;7.10;;;4.10;;
19735;SDS011;32064;49.310;8.646;2023-04-30T07:58:54;5.47;;;3.88;;
19735;SDS011;32064;49.310;8.646;2023-04-30T08:01:20;4.03;;;3.63;;
19735;SDS011;32064;49.310;8.646;2023-04-30T08:03:48;3.78;;;3.47;;
19735;SDS011;32064;49.310;8.646;2023-04-30T08:06:14;3.55;;;3.13;;
19735;SDS011;32064;49.310;8.646;2023-04-30T08:08:39;3.75;;;3.38;;
19735;SDS011;32064;49.310;8.646;2023-04-30T08:11:05;4.20;;;3.53;;
19735;SDS011;32064;49.310;8.646;2023-04-30T08:13:30;5.03;;;3.28;;
19735;SDS011;32064;49.310;8.646;2023-04-30T08:15:56;3.72;;;3.25;;
19735;SDS011;32064;49.310;8.646;2023-04-30T08:18:21;3.50;;;3.03;;
19735;SDS011;32064;49.310;8.646;2023-04-30T08:20:47;5.03;;;3.30;;
19735;SDS011;32064;49.310;8.646;2023-04-30T08:23:12;4.90;;;2.90;;
19735;SDS011;32064;49.310;8.646;2023-04-30T08:25:38;2.40;;;2.20;;
19735;SDS011;32064;49.310;8.646;2023-04-30T08:28:05;4.03;;;2.67;;
19735;SDS011;32064;49.310;8.646;2023-04-30T08:30:30;4.28;;;2.72;;
19735;SDS011;32064;49.310;8.646;2023-04-30T08:32:56;4.30;;;2.80;;
19735;SDS011;32064;49.310;8.646;2023-04-30T08:35:21;3.00;;;2.50;;
19735;SDS011;32064;49.310;8.646;2023-04-30T08:37:46;2.70;;;2.35;;
19735;SDS011;32064;49.310;8.646;2023-04-30T08:40:12;2.92;;;2.53;;
19735;SDS011;32064;49.310;8.646;2023-04-30T08:42:39;9.10;;;2.75;;
19735;SDS011;32064;49.310;8.646;2023-04-30T08:45:10;2.70;;;2.42;;
19735;SDS011;32064;49.310;8.646;2023-04-30T08:47:37;3.20;;;2.25;;
19735;SDS011;32064;49.310;8.646;2023-04-30T08:50:03;2.83;;;2.40;;
19735;SDS011;32064;49.310;8.646;2023-04-30T08:52:30;2.55;;;1.80;;
19735;SDS011;32064;49.310;8.646;2023-04-30T08:55:02;2.92;;;2.20;;
19735;SDS011;32064;49.310;8.646;2023-04-30T08:57:31;3.67;;;2.17;;
19735;SDS011;32064;49.310;8.646;2023-04-30T08:59:57;2.40;;;2.17;;
19735;SDS011;32064;49.310;8.646;2023-04-30T09:02:22;6.38;;;2.25;;
19735;SDS011;32064;49.310;8.646;2023-04-30T09:04:48;2.50;;;1.92;;
19735;SDS011;32064;49.310;8.646;2023-04-30T09:07:13;2.15;;;1.40;;
19735;SDS011;32064;49.310;8.646;2023-04-30T09:09:39;1.67;;;1.58;;
19735;SDS011;32064;49.310;8.646;2023-04-30T09:12:38;1.98;;;1.70;;
19735;SDS011;32064;49.310;8.646;2023-04-30T09:15:01;2.28;;;1.60;;
19735;SDS011;32064;49.310;8.646;2023-04-30T09:17:28;2.63;;;1.88;;
19735;SDS011;32064;49.310;8.646;2023-04-30T09:20:04;2.15;;;1.80;;
19735;SDS011;32064;49.310;8.646;2023-04-30T09:22:34;3.15;;;1.80;;
19735;SDS011;32064;49.310;8.646;2023-04-30T09:25:00;2.42;;;1.83;;
19735;SDS011;32064;49.310;8.646;2023-04-30T09:27:26;4.32;;;1.80;;
19735;SDS011;32064;49.310;8.646;2023-04-30T09:29:51;1.88;;;1.45;;
19735;SDS011;32064;49.310;8.646;2023-04-30T09:32:17;1.33;;;1.13;;
19735;SDS011;32064;49.310;8.646;2023-04-30T09:34:43;1.23;;;1.10;;
19735;SDS011;32064;49.310;8.646;2023-04-30T09:37:09;1.77;;;1.20;;
19735;SDS011;32064;49.310;8.646;2023-04-30T09:39:56;1.67;;;1.52;;
19735;SDS011;32064;49.310;8.646;2023-04-30T09:42:20;4.50;;;1.52;;
19735;SDS011;32064;49.310;8.646;2023-04-30T09:44:46;4.13;;;1.63;;
19735;SDS011;32064;49.310;8.646;2023-04-30T09:47:16;2.42;;;1.35;;
19735;SDS011;32064;49.310;8.646;2023-04-30T09:49:46;1.92;;;1.35;;
19735;SDS011;32064;49.310;8.646;2023-04-30T09:52:13;1.88;;;1.50;;
19735;SDS011;32064;49.310;8.646;2023-04-30T09:54:40;3.28;;;1.42;;
19735;SDS011;32064;49.310;8.646;2023-04-30T09:57:09;1.42;;;1.27;;
19735;SDS011;32064;49.310;8.646;2023-04-30T09:59:35;4.22;;;1.45;;
19735;SDS011;32064;49.310;8.646;2023-04-30T10:02:04;1.40;;;1.30;;
19735;SDS011;32064;49.310;8.646;2023-04-30T10:04:35;3.88;;;1.58;;
19735;SDS011;32064;49.310;8.646;2023-04-30T10:07:04;1.80;;;1.58;;
19735;SDS011;32064;49.310;8.646;2023-04-30T10:09:40;1.92;;;1.80;;
19735;SDS011;32064;49.310;8.646;2023-04-30T10:12:16;2.22;;;1.77;;
19735;SDS011;32064;49.310;8.646;2023-04-30T10:14:54;3.60;;;2.05;;
19735;SDS011;32064;49.310;8.646;2023-04-30T10:17:26;2.20;;;1.70;;
19735;SDS011;32064;49.310;8.646;2023-04-30T10:19:56;2.85;;;1.90;;
19735;SDS011;32064;49.310;8.646;2023-04-30T10:22:25;3.05;;;1.55;;
19735;SDS011;32064;49.310;8.646;2023-04-30T10:24:52;2.17;;;1.90;;
19735;SDS011;32064;49.310;8.646;2023-04-30T10:27:18;1.75;;;1.65;;
19735;SDS011;32064;49.310;8.646;2023-04-30T10:29:43;2.08;;;1.65;;
19735;SDS011;32064;49.310;8.646;2023-04-30T10:32:10;2.22;;;1.92;;
19735;SDS011;32064;49.310;8.646;2023-04-30T10:34:49;1.80;;;1.35;;
19735;SDS011;32064;49.310;8.646;2023-04-30T10:37:35;2.67;;;1.77;;
19735;SDS011;32064;49.310;8.646;2023-04-30T10:40:02;1.98;;;1.70;;
19735;SDS011;32064;49.310;8.646;2023-04-30T10:42:29;3.95;;;1.65;;
19735;SDS011;32064;49.310;8.646;2023-04-30T10:44:54;2.50;;;1.70;;
19735;SDS011;32064;49.310;8.646;2023-04-30T10:47:26;3.63;;;1.80;;
19735;SDS011;32064;49.310;8.646;2023-04-30T10:50:00;4.45;;;1.90;;
19735;SDS011;32064;49.310;8.646;2023-04-30T10:52:27;2.03;;;1.70;;
19735;SDS011;32064;49.310;8.646;2023-04-30T10:54:53;2.60;;;1.90;;
19735;SDS011;32064;49.310;8.646;2023-04-30T10:57:19;4.90;;;1.88;;
19735;SDS011;32064;49.310;8.646;2023-04-30T11:02:15;2.13;;;1.90;;
19735;SDS011;32064;49.310;8.646;2023-04-30T11:07:50;1.55;;;1.45;;
19735;SDS011;32064;49.310;8.646;2023-04-30T11:10:21;4.00;;;1.70;;
19735;SDS011;32064;49.310;8.646;2023-04-30T11:12:51;2.30;;;1.70;;
19735;SDS011;32064;49.310;8.646;2023-04-30T11:15:18;3.13;;;1.52;;
19735;SDS011;32064;49.310;8.646;2023-04-30T11:17:47;2.67;;;1.80;;
19735;SDS011;32064;49.310;8.646;2023-04-30T11:20:15;2.78;;;1.80;;
19735;SDS011;32064;49.310;8.646;2023-04-30T11:22:43;3.63;;;1.70;;
19735;SDS011;32064;49.310;8.646;2023-04-30T11:25:10;2.67;;;1.80;;
19735;SDS011;32064;49.310;8.646;2023-04-30T11:27:42;2.20;;;2.00;;
19735;SDS011;32064;49.310;8.646;2023-04-30T11:30:12;2.25;;;2.05;;
19735;SDS011;32064;49.310;8.646;2023-04-30T11:32:39;2.38;;;1.60;;
19735;SDS011;32064;49.310;8.646;2023-04-30T11:35:07;2.75;;;1.77;;
19735;SDS011;32064;49.310;8.646;2023-04-30T11:37:37;1.40;;;1.30;;
19735;SDS011;32064;49.310;8.646;2023-04-30T11:40:04;2.10;;;1.90;;
19735;SDS011;32064;49.310;8.646;2023-04-30T11:42:32;1.80;;;1.60;;
19735;SDS011;32064;49.310;8.646;2023-04-30T11:45:02;1.73;;;1.63;;
19735;SDS011;32064;49.310;8.646;2023-04-30T11:47:37;3.67;;;1.70;;
19735;SDS011;32064;49.310;8.646;2023-04-30T11:50:10;2.35;;;1.80;;
19735;SDS011;32064;49.310;8.646;2023-04-30T11:52:37;1.63;;;1.52;;
19735;SDS011;32064;49.310;8.646;2023-04-30T11:55:04;1.55;;;1.45;;
19735;SDS011;32064;49.310;8.646;2023-04-30T11:57:41;3.35;;;1.77;;
19735;SDS011;32064;49.310;8.646;2023-04-30T12:00:18;2.47;;;1.60;;
19735;SDS011;32064;49.310;8.646;2023-04-30T12:02:46;1.70;;;1.58;;
19735;SDS011;32064;49.310;8.646;2023-04-30T12:05:20;1.52;;;1.30;;
19735;SDS011;32064;49.310;8.646;2023-04-30T12:07:48;2.17;;;1.63;;
19735;SDS011;32064;49.310;8.646;2023-04-30T12:10:34;2.25;;;1.50;;
19735;SDS011;32064;49.310;8.646;2023-04-30T12:13:00;3.45;;;1.50;;
19735;SDS011;32064;49.310;8.646;2023-04-30T12:15:26;1.70;;;1.60;;
19735;SDS011;32064;49.310;8.646;2023-04-30T12:17:57;2.00;;;1.70;;
19735;SDS011;32064;49.310;8.646;2023-04-30T12:20:27;2.00;;;1.75;;
19735;SDS011;32064;49.310;8.646;2023-04-30T12:22:55;2.03;;;1.42;;
19735;SDS011;32064;49.310;8.646;2023-04-30T12:25:22;2.42;;;1.48;;
19735;SDS011;32064;49.310;8.646;2023-04-30T12:27:49;2.33;;;1.52;;
19735;SDS011;32064;49.310;8.646;2023-04-30T12:30:20;4.13;;;1.38;;
19735;SDS011;32064;49.310;8.646;2023-04-30T12:32:49;3.72;;;1.90;;
19735;SDS011;32064;49.310;8.646;2023-04-30T12:35:22;1.85;;;1.50;;
19735;SDS011;32064;49.310;8.646;2023-04-30T12:37:49;1.45;;;1.35;;
19735;SDS011;32064;49.310;8.646;2023-04-30T12:40:19;1.38;;;1.25;;
19735;SDS011;32064;49.310;8.646;2023-04-30T12:42:45;1.75;;;1.63;;
19735;SDS011;32064;49.310;8.646;2023-04-30T12:45:11;1.33;;;1.23;;
19735;SDS011;32064;49.310;8.646;2023-04-30T12:47:38;2.25;;;1.55;;
19735;SDS011;32064;49.310;8.646;2023-04-30T12:50:10;4.82;;;1.50;;
19735;SDS011;32064;49.310;8.646;2023-04-30T12:52:36;1.75;;;1.58;;
19735;SDS011;32064;49.310;8.646;2023-04-30T12:58:06;1.60;;;1.50;;
19735;SDS011;32064;49.310;8.646;2023-04-30T13:00:48;2.08;;;1.60;;
19735;SDS011;32064;49.310;8.646;2023-04-30T13:03:18;1.73;;;1.30;;
19735;SDS011;32064;49.310;8.646;2023-04-30T13:05:49;1.55;;;1.40;;
19735;SDS011;32064;49.310;8.646;2023-04-30T13:08:16;1.55;;;1.45;;
19735;SDS011;32064;49.310;8.646;2023-04-30T13:10:43;1.63;;;1.40;;
19735;SDS011;32064;49.310;8.646;2023-04-30T13:13:12;2.10;;;1.35;;
19735;SDS011;32064;49.310;8.646;2023-04-30T13:15:39;3.67;;;1.60;;
19735;SDS011;32064;49.310;8.646;2023-04-30T13:18:06;2.40;;;1.63;;
19735;SDS011;32064;49.310;8.646;2023-04-30T13:20:35;3.20;;;1.67;;
19735;SDS011;32064;49.310;8.646;2023-04-30T13:23:00;3.53;;;1.45;;
19735;SDS011;32064;49.310;8.646;2023-04-30T13:25:26;1.98;;;1.38;;
19735;SDS011;32064;49.310;8.646;2023-04-30T13:27:51;1.60;;;1.50;;
19735;SDS011;32064;49.310;8.646;2023-04-30T13:30:17;1.98;;;1.48;;
19735;SDS011;32064;49.310;8.646;2023-04-30T13:32:42;3.15;;;1.38;;
19735;SDS011;32064;49.310;8.646;2023-04-30T13:35:08;2.13;;;1.52;;
19735;SDS011;32064;49.310;8.646;2023-04-30T13:37:35;1.50;;;1.30;;
19735;SDS011;32064;49.310;8.646;2023-04-30T13:40:00;1.30;;;1.20;;
19735;SDS011;32064;49.310;8.646;2023-04-30T13:42:27;1.33;;;1.00;;
19735;SDS011;32064;49.310;8.646;2023-04-30T13:44:54;1.98;;;1.52;;
19735;SDS011;32064;49.310;8.646;2023-04-30T13:47:19;1.35;;;1.17;;
19735;SDS011;32064;49.310;8.646;2023-04-30T13:49:45;4.45;;;1.48;;
19735;SDS011;32064;49.310;8.646;2023-04-30T13:52:10;1.60;;;1.33;;
19735;SDS011;32064;49.310;8.646;2023-04-30T13:54:36;1.83;;;1.23;;
19735;SDS011;32064;49.310;8.646;2023-04-30T13:57:02;1.45;;;1.20;;
19735;SDS011;32064;49.310;8.646;2023-04-30T13:59:28;2.78;;;1.40;;
19735;SDS011;32064;49.310;8.646;2023-04-30T14:01:53;4.80;;;1.35;;
19735;SDS011;32064;49.310;8.646;2023-04-30T14:04:19;1.30;;;1.20;;
19735;SDS011;32064;49.310;8.646;2023-04-30T14:06:44;1.30;;;1.20;;
19735;SDS011;32064;49.310;8.646;2023-04-30T14:09:11;1.05;;;1.00;;
19735;SDS011;32064;49.310;8.646;2023-04-30T14:11:36;3.90;;;1.17;;
19735;SDS011;32064;49.310;8.646;2023-04-30T14:14:03;0.93;;;0.90;;
19735;SDS011;32064;49.310;8.646;2023-04-30T14:16:30;1.10;;;1.05;;
19735;SDS011;32064;49.310;8.646;2023-04-30T14:18:56;1.63;;;1.10;;
19735;SDS011;32064;49.310;8.646;2023-04-30T14:21:21;1.75;;;1.20;;
19735;SDS011;32064;49.310;8.646;2023-04-30T14:23:46;1.63;;;1.02;;
19735;SDS011;32064;49.310;8.646;2023-04-30T14:26:12;1.25;;;1.15;;
19735;SDS011;32064;49.310;8.646;2023-04-30T14:28:37;1.35;;;1.10;;
19735;SDS011;32064;49.310;8.646;2023-04-30T14:31:03;1.48;;;1.08;;
19735;SDS011;32064;49.310;8.646;2023-04-30T14:33:32;1.65;;;1.10;;
19735;SDS011;32064;49.310;8.646;2023-04-30T14:35:57;1.85;;;1.13;;
19735;SDS011;32064;49.310;8.646;2023-04-30T14:38:26;1.38;;;0.98;;
19735;SDS011;32064;49.310;8.646;2023-04-30T14:40:51;1.20;;;1.10;;
19735;SDS011;32064;49.310;8.646;2023-04-30T14:43:17;1.33;;;1.10;;
19735;SDS011;32064;49.310;8.646;2023-04-30T14:45:43;1.77;;;1.20;;
19735;SDS011;32064;49.310;8.646;2023-04-30T14:48:10;1.23;;;1.13;;
19735;SDS011;32064;49.310;8.646;2023-04-30T14:50:36;0.80;;;0.80;;
19735;SDS011;32064;49.310;8.646;2023-04-30T14:53:03;1.10;;;1.00;;
19735;SDS011;32064;49.310;8.646;2023-04-30T14:55:29;1.00;;;1.00;;
19735;SDS011;32064;49.310;8.646;2023-04-30T14:57:55;1.40;;;1.30;;
19735;SDS011;32064;49.310;8.646;2023-04-30T15:00:20;1.15;;;1.00;;
19735;SDS011;32064;49.310;8.646;2023-04-30T15:02:46;1.00;;;1.00;;
19735;SDS011;32064;49.310;8.646;2023-04-30T15:05:11;1.27;;;1.17;;
19735;SDS011;32064;49.310;8.646;2023-04-30T15:07:37;1.10;;;1.00;;
19735;SDS011;32064;49.310;8.646;2023-04-30T15:10:03;1.27;;;0.98;;
19735;SDS011;32064;49.310;8.646;2023-04-30T15:12:30;1.10;;;1.00;;
19735;SDS011;32064;49.310;8.646;2023-04-30T15:14:56;1.23;;;1.10;;
19735;SDS011;32064;49.310;8.646;2023-04-30T15:17:21;1.75;;;1.08;;
19735;SDS011;32064;49.310;8.646;2023-04-30T15:19:48;1.30;;;1.20;;
19735;SDS011;32064;49.310;8.646;2023-04-30T15:22:13;1.25;;;1.02;;